Aviation Digital Data Service (ADDS)

Output produced by METARs form (0426 UTC 30 March 2015)
found at http://www.aviationweather.gov/adds/metars/
 
KAOO 300353Z AUTO 19008KT 10SM OVC070 04/M13 A2996 RMK AO2 SLP160 T00391128
KAOO 300253Z AUTO 17009KT 10SM BKN075 OVC090 03/M13 A3000 RMK AO2 SLP173 T00331133 56018
KAOO 300153Z AUTO 20010KT 10SM FEW110 03/M14 A3001 RMK AO2 SLP177 T00331139
KAOO 300053Z AUTO 18009G16KT 10SM CLR 04/M14 A3003 RMK AO2 SLP185 T00391144
KAOO 292353Z AUTO 19010KT 10SM CLR 04/M13 A3005 RMK AO2 SLP194 T00441133 10067 20033 56028
KAOO 292253Z AUTO 18009KT 10SM CLR 06/M13 A3006 RMK AO2 SLP198 T00561133
KAOO 292153Z AUTO 21010KT 10SM CLR 07/M14 A3009 RMK AO2 SLP206 T00671139
KAOO 292053Z AUTO 23008KT 10SM CLR 07/M13 A3014 RMK AO2 SLP223 T00671133 57033
KAOO 291953Z AUTO 25009KT 210V270 10SM CLR 06/M15 A3018 RMK AO2 SLP237 T00561150
KAOO 291853Z AUTO VRB05KT 10SM CLR 04/M14 A3020 RMK AO2 SLP245 T00391144
KAOO 291753Z AUTO 26006KT 10SM CLR 03/M14 A3024 RMK AO2 SLP259 T00331139 10033 21078 58023
KAOO 291653Z AUTO VRB04KT 10SM CLR 02/M13 A3027 RMK AO2 SLP270 T00171133
KAOO 291553Z AUTO 26006KT 10SM CLR M01/M14 A3030 RMK AO2 SLP280 T10061139
KAOO 291453Z AUTO 28008KT 10SM CLR M02/M13 A3031 RMK AO2 SLP286 T10221133 50004
KAOO 291353Z AUTO 33009KT 10SM CLR M03/M13 A3033 RMK AO2 SLP293 T10331133
KAOO 291253Z AUTO 30011KT 10SM CLR M06/M13 A3031 RMK AO2 SLP288 T10611128
KAOO 291153Z AUTO VRB04KT 10SM CLR M08/M13 A3030 RMK AO2 SLP284 T10781133 11072 21100 53017
KAOO 291053Z AUTO 00000KT 10SM CLR M08/M14 A3027 RMK AO2 SLP275 T10831139
KAOO 290953Z AUTO 31007KT 10SM CLR M08/M14 A3026 RMK AO2 SLP270 T10831139
KAOO 290853Z AUTO 33004KT 10SM CLR M08/M14 A3024 RMK AO2 SLP266 T10831144 53003
KAOO 290753Z AUTO 32006KT 10SM CLR M08/M14 A3024 RMK AO2 SLP264 T10781139
KAOO 290653Z AUTO VRB03KT 10SM CLR M08/M14 A3024 RMK AO2 SLP264 T10781144
KAOO 290553Z AUTO 30003KT 10SM CLR M08/M15 A3023 RMK AO2 SLP262 T10781150 11044 21078 51012
KAOO 290453Z AUTO 32007KT 10SM CLR M07/M15 A3022 RMK AO2 SLP258 T10721150 410331089
KAOO 290353Z AUTO 31009KT 10SM CLR M07/M16 A3022 RMK AO2 SLP257 T10671161
KAOO 290253Z AUTO 33013KT 10SM CLR M06/M17 A3020 RMK AO2 SLP250 T10611167 51030
KAOO 290153Z AUTO 33010G19KT 10SM CLR M06/M17 A3018 RMK AO2 PK WND 32026/0117 SLP242 T10561172
KAOO 290053Z AUTO 32012G20KT 10SM CLR M05/M18 A3014 RMK AO2 SLP231 T10501178
KAOO 282353Z AUTO 31012G20KT 10SM FEW060 M04/M16 A3011 RMK AO2 SLP220 T10441161 11033 21050 53023
KAOO 282253Z AUTO 30014G25KT 10SM OVC060 M04/M16 A3008 RMK AO2 PK WND 30028/2156 SLP209 T10391156
KAOO 282153Z AUTO 30017G22KT 10SM BKN050 OVC065 M03/M14 A3005 RMK AO2 PK WND 29026/2140 SLP198 T10331139
KAOO 282053Z AUTO 30017G23KT 10SM OVC050 M04/M15 A3003 RMK AO2 PK WND 29026/2009 SLP193 T10441150 53009
KAOO 281953Z AUTO 30016G24KT 10SM OVC042 M04/M13 A3002 RMK AO2 SLP189 T10441133
KAOO 281853Z AUTO 30017G26KT 10SM OVC041 M04/M14 A3001 RMK AO2 PK WND 31027/1817 SLP184 T10441139
KAOO 281753Z AUTO 31018G24KT 10SM OVC040 M04/M13 A3001 RMK AO2 SLP182 60000 T10391133 11033 21089 53002
KAOO 281653Z AUTO 32016G24KT 10SM BKN034 BKN042 M03/M13 A3000 RMK AO2 PK WND 31026/1634 SLP180 T10331128
KAOO 281644Z AUTO 32018G26KT 10SM BKN030 M04/M13 A3000 RMK AO2 PK WND 31026/1634 T10391128
KAOO 281635Z AUTO 32020G26KT 10SM BKN028 M04/M13 A3000 RMK AO2 PK WND 31026/1634 T10391128